sensor_id;sensor_type;location;lat;lon;timestamp;pressure;altitude;pressure_sealevel;temperature;humidity
7018;BME280;3549;42.162;24.726;2023-06-26T00:01:49;47251.94;;;-141.97;63.59
7018;BME280;3549;42.162;24.726;2023-06-26T00:04:15;47476.78;;;-141.97;63.43
7018;BME280;3549;42.162;24.726;2023-06-26T00:06:41;47501.78;;;-141.97;63.46
7018;BME280;3549;42.162;24.726;2023-06-26T00:09:06;47530.59;;;-141.97;63.42
7018;BME280;3549;42.162;24.726;2023-06-26T00:11:32;47599.81;;;-141.97;63.96
7018;BME280;3549;42.162;24.726;2023-06-26T00:13:59;47757.41;;;-141.97;63.71
7018;BME280;3549;42.162;24.726;2023-06-26T00:16:25;47720.91;;;-141.97;63.60
7018;BME280;3549;42.162;24.726;2023-06-26T00:18:51;47446.03;;;-141.97;64.29
7018;BME280;3549;42.162;24.726;2023-06-26T00:21:16;47469.09;;;-141.97;64.72
7018;BME280;3549;42.162;24.726;2023-06-26T00:23:42;47638.25;;;-141.97;64.20
7018;BME280;3549;42.162;24.726;2023-06-26T00:26:08;47361.47;;;-141.97;64.04
7018;BME280;3549;42.162;24.726;2023-06-26T00:28:34;47442.19;;;-141.97;63.99
7018;BME280;3549;42.162;24.726;2023-06-26T00:31:00;47496.00;;;-141.97;63.83
7018;BME280;3549;42.162;24.726;2023-06-26T00:33:25;47542.16;;;-141.97;64.29
7018;BME280;3549;42.162;24.726;2023-06-26T00:35:51;47401.84;;;-141.97;64.37
7018;BME280;3549;42.162;24.726;2023-06-26T00:38:16;47507.53;;;-141.97;64.70
7018;BME280;3549;42.162;24.726;2023-06-26T00:40:42;47519.06;;;-141.97;65.05
7018;BME280;3549;42.162;24.726;2023-06-26T00:43:08;47369.16;;;-141.97;64.77
7018;BME280;3549;42.162;24.726;2023-06-26T00:45:34;47674.78;;;-141.97;64.69
7018;BME280;3549;42.162;24.726;2023-06-26T00:47:59;47373.00;;;-141.97;64.59
7018;BME280;3549;42.162;24.726;2023-06-26T00:50:25;47436.44;;;-141.97;64.97
7018;BME280;3549;42.162;24.726;2023-06-26T00:52:51;47661.31;;;-141.97;65.01
7018;BME280;3549;42.162;24.726;2023-06-26T00:55:17;47478.72;;;-141.97;65.56
7018;BME280;3549;42.162;24.726;2023-06-26T00:57:43;47530.59;;;-141.97;67.32
7018;BME280;3549;42.162;24.726;2023-06-26T01:00:11;47507.53;;;-141.97;67.96
7018;BME280;3549;42.162;24.726;2023-06-26T01:02:37;47496.00;;;-141.97;68.61
7018;BME280;3549;42.162;24.726;2023-06-26T01:05:05;47553.69;;;-141.97;68.89
7018;BME280;3549;42.162;24.726;2023-06-26T01:07:32;47551.75;;;-141.97;69.56
7018;BME280;3549;42.162;24.726;2023-06-26T01:10:03;47305.75;;;-141.97;70.50
7018;BME280;3549;42.162;24.726;2023-06-26T01:12:30;47680.53;;;-141.97;70.71
7018;BME280;3549;42.162;24.726;2023-06-26T01:14:57;47559.44;;;-141.97;70.67
7018;BME280;3549;42.162;24.726;2023-06-26T01:17:23;47384.53;;;-141.97;70.85
7018;BME280;3549;42.162;24.726;2023-06-26T01:19:49;47542.16;;;-141.97;70.90
7018;BME280;3549;42.162;24.726;2023-06-26T01:22:39;47538.28;;;-141.97;71.59
7018;BME280;3549;42.162;24.726;2023-06-26T01:25:33;47567.13;;;-141.97;72.00
7018;BME280;3549;42.162;24.726;2023-06-26T01:28:06;47553.69;;;-141.97;72.07
7018;BME280;3549;42.162;24.726;2023-06-26T01:30:34;47530.59;;;-141.97;71.33
7018;BME280;3549;42.162;24.726;2023-06-26T01:33:02;47526.75;;;-141.97;72.00
7018;BME280;3549;42.162;24.726;2023-06-26T01:35:28;47676.69;;;-141.97;71.57
7018;BME280;3549;42.162;24.726;2023-06-26T01:38:11;47749.72;;;-141.97;70.81
7018;BME280;3549;42.162;24.726;2023-06-26T01:40:37;47315.34;;;-141.97;71.30
7018;BME280;3549;42.162;24.726;2023-06-26T01:43:02;47649.78;;;-141.97;71.76
7018;BME280;3549;42.162;24.726;2023-06-26T01:45:29;47530.59;;;-141.97;71.83
7018;BME280;3549;42.162;24.726;2023-06-26T01:47:57;47369.16;;;-141.97;71.62
7018;BME280;3549;42.162;24.726;2023-06-26T01:50:28;47722.81;;;-141.97;71.92
7018;BME280;3549;42.162;24.726;2023-06-26T01:56:16;47561.38;;;-141.97;71.64
7018;BME280;3549;42.162;24.726;2023-06-26T01:58:45;47522.91;;;-141.97;71.66
7018;BME280;3549;42.162;24.726;2023-06-26T02:01:11;47478.72;;;-141.97;71.11
7018;BME280;3549;42.162;24.726;2023-06-26T02:03:37;47546.00;;;-141.97;71.34
7018;BME280;3549;42.162;24.726;2023-06-26T02:06:02;47588.28;;;-141.97;71.51
7018;BME280;3549;42.162;24.726;2023-06-26T02:08:28;47592.13;;;-141.97;70.95
7018;BME280;3549;42.162;24.726;2023-06-26T02:10:53;47496.00;;;-141.97;71.22
7018;BME280;3549;42.162;24.726;2023-06-26T02:13:19;47540.22;;;-141.97;71.14
7018;BME280;3549;42.162;24.726;2023-06-26T02:15:44;47540.22;;;-141.97;71.13
7018;BME280;3549;42.162;24.726;2023-06-26T02:18:09;47563.28;;;-141.97;71.41
7018;BME280;3549;42.162;24.726;2023-06-26T02:20:35;47499.84;;;-141.97;71.51
7018;BME280;3549;42.162;24.726;2023-06-26T02:23:01;47634.41;;;-141.97;71.49
7018;BME280;3549;42.162;24.726;2023-06-26T02:25:26;47411.44;;;-141.97;71.89
7018;BME280;3549;42.162;24.726;2023-06-26T02:27:52;47242.31;;;-141.97;71.51
7018;BME280;3549;42.162;24.726;2023-06-26T02:30:17;47490.25;;;-141.97;71.51
7018;BME280;3549;42.162;24.726;2023-06-26T02:32:43;47624.78;;;-141.97;71.42
7018;BME280;3549;42.162;24.726;2023-06-26T02:35:08;47755.50;;;-141.97;71.18
7018;BME280;3549;42.162;24.726;2023-06-26T02:37:34;47686.31;;;-141.97;71.65
7018;BME280;3549;42.162;24.726;2023-06-26T02:39:59;47459.50;;;-141.97;71.39
7018;BME280;3549;42.162;24.726;2023-06-26T02:42:24;47353.78;;;-141.97;71.33
7018;BME280;3549;42.162;24.726;2023-06-26T02:44:50;47559.44;;;-141.97;71.40
7018;BME280;3549;42.162;24.726;2023-06-26T02:47:15;47718.97;;;-141.97;71.13
7018;BME280;3549;42.162;24.726;2023-06-26T02:49:41;47380.69;;;-141.97;70.44
7018;BME280;3549;42.162;24.726;2023-06-26T02:52:06;47553.69;;;-141.97;69.71
7018;BME280;3549;42.162;24.726;2023-06-26T02:54:31;47561.38;;;-141.97;69.95
7018;BME280;3549;42.162;24.726;2023-06-26T02:56:57;47424.91;;;-141.97;70.01
7018;BME280;3549;42.162;24.726;2023-06-26T02:59:24;47403.75;;;-141.97;69.78
7018;BME280;3549;42.162;24.726;2023-06-26T03:01:50;47546.00;;;-141.97;69.37
7018;BME280;3549;42.162;24.726;2023-06-26T03:04:15;47661.31;;;-141.97;69.40
7018;BME280;3549;42.162;24.726;2023-06-26T03:06:43;47267.31;;;-141.97;69.81
7018;BME280;3549;42.162;24.726;2023-06-26T03:09:08;47709.38;;;-141.97;69.75
7018;BME280;3549;42.162;24.726;2023-06-26T03:11:34;47436.44;;;-141.97;69.55
7018;BME280;3549;42.162;24.726;2023-06-26T03:13:59;47546.00;;;-141.97;69.31
7018;BME280;3549;42.162;24.726;2023-06-26T03:16:25;47717.06;;;-141.97;69.51
7018;BME280;3549;42.162;24.726;2023-06-26T03:18:50;47503.69;;;-141.97;68.89
7018;BME280;3549;42.162;24.726;2023-06-26T03:21:17;47705.53;;;-141.97;68.87
7018;BME280;3549;42.162;24.726;2023-06-26T03:23:42;47709.38;;;-141.97;68.72
7018;BME280;3549;42.162;24.726;2023-06-26T03:26:08;47788.19;;;-141.97;68.57
7018;BME280;3549;42.162;24.726;2023-06-26T03:28:33;47620.94;;;-141.97;68.25
7018;BME280;3549;42.162;24.726;2023-06-26T03:30:59;47659.38;;;-141.97;68.27
7018;BME280;3549;42.162;24.726;2023-06-26T03:33:24;47505.63;;;-141.97;68.36
7018;BME280;3549;42.162;24.726;2023-06-26T03:35:50;47559.44;;;-141.97;68.62
7018;BME280;3549;42.162;24.726;2023-06-26T03:38:15;47549.84;;;-141.97;68.96
7018;BME280;3549;42.162;24.726;2023-06-26T03:40:41;47346.09;;;-141.97;68.93
7018;BME280;3549;42.162;24.726;2023-06-26T03:43:06;47594.03;;;-141.97;69.13
7018;BME280;3549;42.162;24.726;2023-06-26T03:45:31;47547.91;;;-141.97;69.17
7018;BME280;3549;42.162;24.726;2023-06-26T03:47:57;47546.00;;;-141.97;69.16
7018;BME280;3549;42.162;24.726;2023-06-26T03:50:22;47638.25;;;-141.97;68.60
7018;BME280;3549;42.162;24.726;2023-06-26T03:52:48;47499.84;;;-141.97;67.99
7018;BME280;3549;42.162;24.726;2023-06-26T03:55:15;47442.19;;;-141.97;67.84
7018;BME280;3549;42.162;24.726;2023-06-26T03:57:40;47444.13;;;-141.97;67.29
7018;BME280;3549;42.162;24.726;2023-06-26T04:00:06;47570.97;;;-141.97;67.23
7018;BME280;3549;42.162;24.726;2023-06-26T04:02:34;47484.47;;;-141.97;67.36
7018;BME280;3549;42.162;24.726;2023-06-26T04:05:01;47519.06;;;-141.97;67.42
7018;BME280;3549;42.162;24.726;2023-06-26T04:07:26;47476.78;;;-141.97;67.49
7018;BME280;3549;42.162;24.726;2023-06-26T04:09:51;47563.28;;;-141.97;67.27
7018;BME280;3549;42.162;24.726;2023-06-26T04:12:17;47765.09;;;-141.97;66.65
7018;BME280;3549;42.162;24.726;2023-06-26T04:14:42;47542.16;;;-141.97;66.77
7018;BME280;3549;42.162;24.726;2023-06-26T04:17:08;47580.59;;;-141.97;66.13
7018;BME280;3549;42.162;24.726;2023-06-26T04:19:33;47553.69;;;-141.97;65.96
7018;BME280;3549;42.162;24.726;2023-06-26T04:22:01;47561.38;;;-141.97;65.75
7018;BME280;3549;42.162;24.726;2023-06-26T04:24:26;47476.78;;;-141.97;65.72
7018;BME280;3549;42.162;24.726;2023-06-26T04:26:51;47469.09;;;-141.97;66.02
7018;BME280;3549;42.162;24.726;2023-06-26T04:29:17;47582.50;;;-141.97;65.20
7018;BME280;3549;42.162;24.726;2023-06-26T04:31:42;47544.06;;;-141.97;64.31
7018;BME280;3549;42.162;24.726;2023-06-26T04:34:12;47565.22;;;-141.97;63.98
7018;BME280;3549;42.162;24.726;2023-06-26T04:36:38;47540.22;;;-141.97;63.88
7018;BME280;3549;42.162;24.726;2023-06-26T04:39:04;47444.13;;;-141.97;63.66
7018;BME280;3549;42.162;24.726;2023-06-26T04:41:29;47722.81;;;-141.97;63.97
7018;BME280;3549;42.162;24.726;2023-06-26T04:43:55;47549.84;;;-141.97;63.75
7018;BME280;3549;42.162;24.726;2023-06-26T04:46:20;47749.72;;;-141.97;63.67
7018;BME280;3549;42.162;24.726;2023-06-26T04:48:46;47490.25;;;-141.97;62.84
7018;BME280;3549;42.162;24.726;2023-06-26T04:51:11;47346.09;;;-141.97;62.76
7018;BME280;3549;42.162;24.726;2023-06-26T04:53:37;47534.44;;;-141.97;62.78
7018;BME280;3549;42.162;24.726;2023-06-26T04:56:02;47546.00;;;-141.97;62.03
7018;BME280;3549;42.162;24.726;2023-06-26T04:58:28;47521.00;;;-141.97;61.26
7018;BME280;3549;42.162;24.726;2023-06-26T05:00:53;47442.19;;;-141.97;60.96
7018;BME280;3549;42.162;24.726;2023-06-26T05:03:19;47626.72;;;-141.97;60.42
7018;BME280;3549;42.162;24.726;2023-06-26T05:05:45;47401.84;;;-141.97;59.78
7018;BME280;3549;42.162;24.726;2023-06-26T05:08:27;47521.00;;;-141.97;59.65
7018;BME280;3549;42.162;24.726;2023-06-26T05:10:52;47567.13;;;-141.97;60.03
7018;BME280;3549;42.162;24.726;2023-06-26T05:13:25;47401.84;;;-141.97;59.89
7018;BME280;3549;42.162;24.726;2023-06-26T05:15:51;47553.69;;;-141.97;59.17
7018;BME280;3549;42.162;24.726;2023-06-26T05:18:17;47519.06;;;-141.97;58.46
7018;BME280;3549;42.162;24.726;2023-06-26T05:20:43;47501.78;;;-141.97;57.21
7018;BME280;3549;42.162;24.726;2023-06-26T05:23:10;47499.84;;;-141.97;56.97
7018;BME280;3549;42.162;24.726;2023-06-26T05:25:37;47501.78;;;-141.97;57.91
7018;BME280;3549;42.162;24.726;2023-06-26T05:28:03;47546.00;;;-141.97;57.55
7018;BME280;3549;42.162;24.726;2023-06-26T05:30:30;47534.44;;;-141.97;56.39
7018;BME280;3549;42.162;24.726;2023-06-26T05:32:59;47513.31;;;-141.97;57.61
7018;BME280;3549;42.162;24.726;2023-06-26T05:35:29;47442.19;;;-141.97;58.16
7018;BME280;3549;42.162;24.726;2023-06-26T05:37:56;47534.44;;;-141.97;57.46
7018;BME280;3549;42.162;24.726;2023-06-26T05:40:22;47490.25;;;-141.97;56.72
7018;BME280;3549;42.162;24.726;2023-06-26T05:42:48;47503.69;;;-141.97;55.84
7018;BME280;3549;42.162;24.726;2023-06-26T05:45:14;47742.03;;;-141.97;56.07
7018;BME280;3549;42.162;24.726;2023-06-26T05:47:39;47459.50;;;-141.97;56.31
7018;BME280;3549;42.162;24.726;2023-06-26T05:50:06;47492.16;;;-141.97;54.97
7018;BME280;3549;42.162;24.726;2023-06-26T05:52:32;47538.28;;;-141.97;54.47
7018;BME280;3549;42.162;24.726;2023-06-26T05:54:57;47434.50;;;-141.97;53.61
7018;BME280;3549;42.162;24.726;2023-06-26T05:57:29;47622.88;;;-141.97;53.88
7018;BME280;3549;42.162;24.726;2023-06-26T05:59:55;47530.59;;;-141.97;54.36
7018;BME280;3549;42.162;24.726;2023-06-26T06:02:20;47732.44;;;-141.97;52.89
7018;BME280;3549;42.162;24.726;2023-06-26T06:04:46;47524.84;;;-141.97;52.99
7018;BME280;3549;42.162;24.726;2023-06-26T06:07:12;47480.63;;;-141.97;52.44
7018;BME280;3549;42.162;24.726;2023-06-26T06:09:37;47505.63;;;-141.97;52.74
7018;BME280;3549;42.162;24.726;2023-06-26T06:12:04;47484.47;;;-141.97;53.07
7018;BME280;3549;42.162;24.726;2023-06-26T06:14:31;47323.03;;;-141.97;53.46
7018;BME280;3549;42.162;24.726;2023-06-26T06:16:56;47519.06;;;-141.97;52.79
7018;BME280;3549;42.162;24.726;2023-06-26T06:19:22;47730.50;;;-141.97;53.42
7018;BME280;3549;42.162;24.726;2023-06-26T06:21:48;47753.56;;;-141.97;54.12
7018;BME280;3549;42.162;24.726;2023-06-26T06:24:13;47407.59;;;-141.97;54.97
7018;BME280;3549;42.162;24.726;2023-06-26T06:26:39;47438.34;;;-141.97;55.60
7018;BME280;3549;42.162;24.726;2023-06-26T06:29:04;47717.06;;;-141.97;55.08
7018;BME280;3549;42.162;24.726;2023-06-26T06:31:30;47703.59;;;-141.97;55.54
7018;BME280;3549;42.162;24.726;2023-06-26T06:33:55;47388.38;;;-141.97;54.38
7018;BME280;3549;42.162;24.726;2023-06-26T06:36:20;47496.00;;;-141.97;54.84
7018;BME280;3549;42.162;24.726;2023-06-26T06:38:46;47524.84;;;-141.97;54.05
7018;BME280;3549;42.162;24.726;2023-06-26T06:41:11;47496.00;;;-141.97;53.70
7018;BME280;3549;42.162;24.726;2023-06-26T06:43:38;47399.91;;;-141.97;53.94
7018;BME280;3549;42.162;24.726;2023-06-26T06:46:03;47261.53;;;-141.97;52.89
7018;BME280;3549;42.162;24.726;2023-06-26T06:48:29;47628.63;;;-141.97;52.83
7018;BME280;3549;42.162;24.726;2023-06-26T06:50:54;47499.84;;;-141.97;51.65
7018;BME280;3549;42.162;24.726;2023-06-26T06:53:20;47507.53;;;-141.97;51.39
7018;BME280;3549;42.162;24.726;2023-06-26T06:55:46;47232.72;;;-141.97;51.82
7018;BME280;3549;42.162;24.726;2023-06-26T06:58:11;47757.41;;;-141.97;50.61
7018;BME280;3549;42.162;24.726;2023-06-26T07:00:37;47446.03;;;-141.97;51.01
7018;BME280;3549;42.162;24.726;2023-06-26T07:03:02;47605.56;;;-141.97;51.15
7018;BME280;3549;42.162;24.726;2023-06-26T07:05:28;47378.78;;;-141.97;50.81
7018;BME280;3549;42.162;24.726;2023-06-26T07:07:53;47469.09;;;-141.97;49.69
7018;BME280;3549;42.162;24.726;2023-06-26T07:10:19;47549.84;;;-141.97;49.48
7018;BME280;3549;42.162;24.726;2023-06-26T07:12:44;47720.91;;;-141.97;49.16
7018;BME280;3549;42.162;24.726;2023-06-26T07:15:10;47417.22;;;-141.97;49.42
7018;BME280;3549;42.162;24.726;2023-06-26T07:17:35;47342.25;;;-141.97;49.48
7018;BME280;3549;42.162;24.726;2023-06-26T07:20:03;47301.91;;;-141.97;49.74
7018;BME280;3549;42.162;24.726;2023-06-26T07:22:31;47690.16;;;-141.97;49.88
7018;BME280;3549;42.162;24.726;2023-06-26T07:24:57;47226.94;;;-141.97;49.85
7018;BME280;3549;42.162;24.726;2023-06-26T07:27:22;47340.34;;;-141.97;49.75
7018;BME280;3549;42.162;24.726;2023-06-26T07:29:47;47711.28;;;-141.97;48.66
7018;BME280;3549;42.162;24.726;2023-06-26T07:32:13;47376.84;;;-141.97;48.55
7018;BME280;3549;42.162;24.726;2023-06-26T07:34:38;47482.56;;;-141.97;47.83
7018;BME280;3549;42.162;24.726;2023-06-26T07:37:04;47430.66;;;-141.97;45.28
7018;BME280;3549;42.162;24.726;2023-06-26T07:39:29;47526.75;;;-141.97;45.06
7018;BME280;3549;42.162;24.726;2023-06-26T07:41:55;47651.69;;;-141.97;44.61
7018;BME280;3549;42.162;24.726;2023-06-26T07:44:21;47440.28;;;-141.97;43.32
7018;BME280;3549;42.162;24.726;2023-06-26T07:46:47;47428.75;;;-141.97;42.74
7018;BME280;3549;42.162;24.726;2023-06-26T07:49:12;47319.19;;;-141.97;42.83
7018;BME280;3549;42.162;24.726;2023-06-26T07:51:38;47380.69;;;-141.97;43.00
7018;BME280;3549;42.162;24.726;2023-06-26T07:54:03;47484.47;;;-141.97;43.40
7018;BME280;3549;42.162;24.726;2023-06-26T07:56:29;47365.31;;;-141.97;43.50
7018;BME280;3549;42.162;24.726;2023-06-26T07:58:54;47428.75;;;-141.97;44.97
7018;BME280;3549;42.162;24.726;2023-06-26T08:01:20;47626.72;;;-141.97;45.40
7018;BME280;3549;42.162;24.726;2023-06-26T08:03:45;47324.97;;;-141.97;45.61
7018;BME280;3549;42.162;24.726;2023-06-26T08:06:10;47592.13;;;-141.97;46.09
7018;BME280;3549;42.162;24.726;2023-06-26T08:08:36;47682.47;;;-141.97;45.80
7018;BME280;3549;42.162;24.726;2023-06-26T08:11:01;47457.56;;;-141.97;45.79
7018;BME280;3549;42.162;24.726;2023-06-26T08:13:27;47440.28;;;-141.97;45.08
7018;BME280;3549;42.162;24.726;2023-06-26T08:15:52;47411.44;;;-141.97;46.40
7018;BME280;3549;42.162;24.726;2023-06-26T08:18:18;47461.41;;;-141.97;46.45
7018;BME280;3549;42.162;24.726;2023-06-26T08:20:44;47555.59;;;-141.97;48.15
7018;BME280;3549;42.162;24.726;2023-06-26T08:23:09;47507.53;;;-141.97;52.11
7018;BME280;3549;42.162;24.726;2023-06-26T08:25:34;47449.88;;;-141.97;50.77
7018;BME280;3549;42.162;24.726;2023-06-26T08:28:00;47728.59;;;-141.97;50.38
7018;BME280;3549;42.162;24.726;2023-06-26T08:30:25;47642.09;;;-141.97;49.33
7018;BME280;3549;42.162;24.726;2023-06-26T08:32:56;47374.94;;;-141.97;51.62
7018;BME280;3549;42.162;24.726;2023-06-26T08:35:22;47401.84;;;-141.97;53.97
7018;BME280;3549;42.162;24.726;2023-06-26T08:37:47;47378.78;;;-141.97;54.57
7018;BME280;3549;42.162;24.726;2023-06-26T08:40:16;47461.41;;;-141.97;54.28
7018;BME280;3549;42.162;24.726;2023-06-26T08:42:42;47411.44;;;-141.97;52.80
7018;BME280;3549;42.162;24.726;2023-06-26T08:45:08;47615.19;;;-141.97;53.76
7018;BME280;3549;42.162;24.726;2023-06-26T08:47:34;47342.25;;;-141.97;53.15
7018;BME280;3549;42.162;24.726;2023-06-26T08:50:11;47503.69;;;-141.97;53.38
7018;BME280;3549;42.162;24.726;2023-06-26T08:52:53;47715.13;;;-141.97;48.05
7018;BME280;3549;42.162;24.726;2023-06-26T08:55:20;47303.81;;;-141.97;45.38
7018;BME280;3549;42.162;24.726;2023-06-26T08:57:50;47438.34;;;-141.97;48.41
7018;BME280;3549;42.162;24.726;2023-06-26T09:00:16;47457.56;;;-141.97;47.94
7018;BME280;3549;42.162;24.726;2023-06-26T09:02:42;47403.75;;;-141.97;45.63
7018;BME280;3549;42.162;24.726;2023-06-26T09:05:09;47346.09;;;-141.97;44.79
7018;BME280;3549;42.162;24.726;2023-06-26T09:07:34;47661.31;;;-141.97;41.16
7018;BME280;3549;42.162;24.726;2023-06-26T09:10:00;47422.97;;;-141.97;41.23
7018;BME280;3549;42.162;24.726;2023-06-26T09:12:27;47411.44;;;-141.97;40.47
7018;BME280;3549;42.162;24.726;2023-06-26T09:14:54;47380.69;;;-141.97;40.22
7018;BME280;3549;42.162;24.726;2023-06-26T09:17:24;47611.34;;;-141.97;41.63
7018;BME280;3549;42.162;24.726;2023-06-26T09:19:49;47707.44;;;-141.97;43.34
7018;BME280;3549;42.162;24.726;2023-06-26T09:22:15;47342.25;;;-141.97;44.01
7018;BME280;3549;42.162;24.726;2023-06-26T09:24:43;47376.84;;;-141.97;42.78
7018;BME280;3549;42.162;24.726;2023-06-26T09:27:09;47353.78;;;-141.97;46.09
7018;BME280;3549;42.162;24.726;2023-06-26T09:29:35;47461.41;;;-141.97;50.52
7018;BME280;3549;42.162;24.726;2023-06-26T09:32:00;47590.19;;;-141.97;53.93
7018;BME280;3549;42.162;24.726;2023-06-26T09:34:32;47492.16;;;-141.97;55.47
7018;BME280;3549;42.162;24.726;2023-06-26T09:36:59;47501.78;;;-141.97;55.29
7018;BME280;3549;42.162;24.726;2023-06-26T09:39:30;47486.41;;;-141.97;55.99
7018;BME280;3549;42.162;24.726;2023-06-26T09:41:55;47546.00;;;-141.97;55.81
7018;BME280;3549;42.162;24.726;2023-06-26T09:44:22;47449.88;;;-141.97;55.98
7018;BME280;3549;42.162;24.726;2023-06-26T09:46:48;47497.94;;;-141.97;56.95
7018;BME280;3549;42.162;24.726;2023-06-26T09:49:13;47426.81;;;-141.97;58.85
7018;BME280;3549;42.162;24.726;2023-06-26T09:51:41;47438.34;;;-141.97;59.25
7018;BME280;3549;42.162;24.726;2023-06-26T09:54:07;47469.09;;;-141.97;61.49
7018;BME280;3549;42.162;24.726;2023-06-26T09:56:33;47250.00;;;-141.97;62.64
7018;BME280;3549;42.162;24.726;2023-06-26T09:59:04;47586.34;;;-141.97;62.00
7018;BME280;3549;42.162;24.726;2023-06-26T10:01:31;47461.41;;;-141.97;61.63
7018;BME280;3549;42.162;24.726;2023-06-26T10:03:57;47509.47;;;-141.97;62.69
7018;BME280;3549;42.162;24.726;2023-06-26T10:06:34;47540.22;;;-141.97;64.00
7018;BME280;3549;42.162;24.726;2023-06-26T10:09:01;47607.50;;;-141.97;64.77
7018;BME280;3549;42.162;24.726;2023-06-26T10:11:37;47513.31;;;-141.97;61.00
7018;BME280;3549;42.162;24.726;2023-06-26T10:14:04;47519.06;;;-141.97;60.65
7018;BME280;3549;42.162;24.726;2023-06-26T10:16:31;47463.34;;;-141.97;60.28
7018;BME280;3549;42.162;24.726;2023-06-26T10:19:01;47492.16;;;-141.97;61.16
7018;BME280;3549;42.162;24.726;2023-06-26T10:21:29;47538.28;;;-141.97;57.33
7018;BME280;3549;42.162;24.726;2023-06-26T10:23:56;47517.16;;;-141.97;57.61
7018;BME280;3549;42.162;24.726;2023-06-26T10:26:24;47444.13;;;-141.97;56.97
7018;BME280;3549;42.162;24.726;2023-06-26T10:28:50;47469.09;;;-141.97;57.08
7018;BME280;3549;42.162;24.726;2023-06-26T10:31:23;47388.38;;;-141.97;55.38
7018;BME280;3549;42.162;24.726;2023-06-26T10:33:52;47724.75;;;-141.97;53.00
7018;BME280;3549;42.162;24.726;2023-06-26T10:36:28;47565.22;;;-141.97;54.93
7018;BME280;3549;42.162;24.726;2023-06-26T10:39:04;47378.78;;;-141.97;55.18
7018;BME280;3549;42.162;24.726;2023-06-26T10:41:39;47684.38;;;-141.97;54.02
7018;BME280;3549;42.162;24.726;2023-06-26T10:44:09;47469.09;;;-141.97;50.37
7018;BME280;3549;42.162;24.726;2023-06-26T10:46:51;47446.03;;;-141.97;47.19
7018;BME280;3549;42.162;24.726;2023-06-26T10:49:19;47469.09;;;-141.97;43.81
7018;BME280;3549;42.162;24.726;2023-06-26T10:51:49;47457.56;;;-141.97;43.99
7018;BME280;3549;42.162;24.726;2023-06-26T10:54:16;47472.94;;;-141.97;42.74
7018;BME280;3549;42.162;24.726;2023-06-26T10:59:18;47134.69;;;-141.97;43.25
7018;BME280;3549;42.162;24.726;2023-06-26T11:01:46;47449.88;;;-141.97;41.93
7018;BME280;3549;42.162;24.726;2023-06-26T11:04:13;47373.00;;;-141.97;39.54
7018;BME280;3549;42.162;24.726;2023-06-26T11:06:41;47301.91;;;-141.97;39.66
7018;BME280;3549;42.162;24.726;2023-06-26T11:09:10;47386.47;;;-141.97;39.40
7018;BME280;3549;42.162;24.726;2023-06-26T11:14:21;47522.91;;;-141.97;41.53
7018;BME280;3549;42.162;24.726;2023-06-26T11:16:47;47380.69;;;-141.97;40.61
7018;BME280;3549;42.162;24.726;2023-06-26T11:19:13;47319.19;;;-141.97;41.56
7018;BME280;3549;42.162;24.726;2023-06-26T11:21:39;47292.28;;;-141.97;42.20
7018;BME280;3549;42.162;24.726;2023-06-26T11:24:09;47403.75;;;-141.97;40.91
7018;BME280;3549;42.162;24.726;2023-06-26T11:26:43;47334.56;;;-141.97;42.60
7018;BME280;3549;42.162;24.726;2023-06-26T11:29:09;47390.31;;;-141.97;45.28
7018;BME280;3549;42.162;24.726;2023-06-26T11:31:36;47442.19;;;-141.97;45.40
7018;BME280;3549;42.162;24.726;2023-06-26T11:34:06;47307.66;;;-141.97;43.65
7018;BME280;3549;42.162;24.726;2023-06-26T11:36:34;47465.25;;;-141.97;44.71
7018;BME280;3549;42.162;24.726;2023-06-26T11:39:03;47315.34;;;-141.97;46.40
7018;BME280;3549;42.162;24.726;2023-06-26T11:41:32;47426.81;;;-141.97;49.43
7018;BME280;3549;42.162;24.726;2023-06-26T11:44:05;47346.09;;;-141.97;47.01
7018;BME280;3549;42.162;24.726;2023-06-26T11:46:33;47438.34;;;-141.97;48.68
7018;BME280;3549;42.162;24.726;2023-06-26T11:48:59;47384.53;;;-141.97;49.22
7018;BME280;3549;42.162;24.726;2023-06-26T11:51:27;47657.47;;;-141.97;48.46
7018;BME280;3549;42.162;24.726;2023-06-26T11:53:53;47313.44;;;-141.97;45.59
7018;BME280;3549;42.162;24.726;2023-06-26T11:56:19;47563.28;;;-141.97;42.42
7018;BME280;3549;42.162;24.726;2023-06-26T12:01:40;47307.66;;;-141.97;38.73
7018;BME280;3549;42.162;24.726;2023-06-26T12:04:10;47303.81;;;-141.97;37.52
7018;BME280;3549;42.162;24.726;2023-06-26T12:06:38;47238.47;;;-141.97;37.89
7018;BME280;3549;42.162;24.726;2023-06-26T12:09:10;47259.63;;;-141.97;36.97
7018;BME280;3549;42.162;24.726;2023-06-26T12:11:41;47261.53;;;-141.97;37.29
7018;BME280;3549;42.162;24.726;2023-06-26T12:14:08;47353.78;;;-141.97;38.31
7018;BME280;3549;42.162;24.726;2023-06-26T12:16:35;47280.75;;;-141.97;38.29
7018;BME280;3549;42.162;24.726;2023-06-26T12:19:02;46955.97;;;-141.97;37.11
7018;BME280;3549;42.162;24.726;2023-06-26T12:24:02;47269.22;;;-141.97;35.92
7018;BME280;3549;42.162;24.726;2023-06-26T12:26:28;47226.94;;;-141.97;36.79
7018;BME280;3549;42.162;24.726;2023-06-26T12:29:04;47253.84;;;-141.97;37.95
7018;BME280;3549;42.162;24.726;2023-06-26T12:31:31;47271.16;;;-141.97;37.57
7018;BME280;3549;42.162;24.726;2023-06-26T12:33:56;47127.00;;;-141.97;35.40
7018;BME280;3549;42.162;24.726;2023-06-26T12:36:22;47290.38;;;-141.97;34.42
7018;BME280;3549;42.162;24.726;2023-06-26T12:38:48;47276.91;;;-141.97;33.54
7018;BME280;3549;42.162;24.726;2023-06-26T12:41:14;47255.78;;;-141.97;34.24
7018;BME280;3549;42.162;24.726;2023-06-26T12:43:40;47419.13;;;-141.97;33.74
7018;BME280;3549;42.162;24.726;2023-06-26T12:46:06;47447.97;;;-141.97;33.86
7018;BME280;3549;42.162;24.726;2023-06-26T12:51:11;47348.03;;;-141.97;36.88
7018;BME280;3549;42.162;24.726;2023-06-26T12:53:37;47196.19;;;-141.97;38.75
7018;BME280;3549;42.162;24.726;2023-06-26T12:56:05;47509.47;;;-141.97;39.23
7018;BME280;3549;42.162;24.726;2023-06-26T12:58:31;47280.75;;;-141.97;39.81
7018;BME280;3549;42.162;24.726;2023-06-26T13:00:56;47326.88;;;-141.97;39.66
7018;BME280;3549;42.162;24.726;2023-06-26T13:03:23;47269.22;;;-141.97;39.97
7018;BME280;3549;42.162;24.726;2023-06-26T13:05:48;47271.16;;;-141.97;42.37